PWSweather.com
Personal Weather Stations
Station Observations
KVAGLENALL
West Henrico, Glen Allen, VA 23060-6503

West HenricoGlen Allen, VA 23060-6503

Lat: 37.6554, Lon: -77.5693

Elevation: 273

Station Type: Davis Vantage Pro II

www.glenallenweather.com

High Low Average
Temperature 50.9°F10.5°C 41.3°F5.2°C 45.7°F7.6°C
Dew Point 48.8°F9.3°C 40.5°F4.7°C 44.1°F6.7°C
Winds 8.0 mph 12.9 kmh Calm Calm 2.0 mph SE3.2 kmh SE
Wind Gusts 12.1 mph19.5 kmh -- 4.0 mph6.4 kmh
Humidity 98% 90% 94%
Pressure 30.57 in1035.2 mb 30.28 in1025.4 mb -
Precipitation 0.00 in0.0 mm - -
Hour Temp Dew Point Humidity Winds Wind Gusts Pressure Precip Precip Rate Daily Precip Total
12:00 AM 46.0°F7.8°C 44.7°F7.1°C 95% 4.0 mph E6.4 kmh E 9.1 mph14.6 kmh 30.53 in1033.9 mb 0.00 in0.0 mm 0.00 in0.0 mm 0.00 in0.0 mm
12:15 AM 45.9°F7.7°C 44.3°F6.8°C 94% 3.0 mph E4.8 kmh E 8.1 mph13.0 kmh 30.55 in1034.5 mb 0.00 in0.0 mm 0.00 in0.0 mm 0.00 in0.0 mm
12:30 AM 45.8°F7.7°C 44.2°F6.8°C 94% 8.0 mph SE12.9 kmh SE 8.1 mph13.0 kmh 30.55 in1034.5 mb 0.00 in0.0 mm 0.00 in0.0 mm 0.00 in0.0 mm
12:45 AM 45.5°F7.5°C 44.2°F6.8°C 95% 2.0 mph NE3.2 kmh NE 6.1 mph9.8 kmh 30.55 in1034.5 mb 0.00 in0.0 mm 0.00 in0.0 mm 0.00 in0.0 mm
01:00 AM 45.3°F7.4°C 44.3°F6.8°C 96% 6.0 mph E9.7 kmh E 8.1 mph13.0 kmh 30.55 in1034.5 mb 0.00 in0.0 mm 0.00 in0.0 mm 0.00 in0.0 mm
01:15 AM 45.1°F7.3°C 44.1°F6.7°C 96% 6.0 mph ENE9.7 kmh ENE 10.1 mph16.3 kmh 30.55 in1034.5 mb 0.00 in0.0 mm 0.00 in0.0 mm 0.00 in0.0 mm
01:30 AM 45.1°F7.3°C 44.1°F6.7°C 96% 1.0 mph NE1.6 kmh NE 8.1 mph13.0 kmh 30.54 in1034.2 mb 0.00 in0.0 mm 0.00 in0.0 mm 0.00 in0.0 mm
01:45 AM 45.0°F7.2°C 44.2°F6.8°C 97% 3.0 mph ESE4.8 kmh ESE 3.0 mph4.8 kmh 30.54 in1034.2 mb 0.00 in0.0 mm 0.00 in0.0 mm 0.00 in0.0 mm
02:00 AM 44.4°F6.9°C 43.4°F6.3°C 96% 7.0 mph NE11.3 kmh NE 9.1 mph14.6 kmh 30.53 in1033.9 mb 0.00 in0.0 mm 0.00 in0.0 mm 0.00 in0.0 mm
02:15 AM 43.9°F6.6°C 42.9°F6.1°C 96% 4.0 mph N6.4 kmh N 8.1 mph13.0 kmh 30.52 in1033.5 mb 0.00 in0.0 mm 0.00 in0.0 mm 0.00 in0.0 mm
02:30 AM 43.9°F6.6°C 43.1°F6.2°C 97% 5.0 mph NNE8.0 kmh NNE 8.1 mph13.0 kmh 30.55 in1034.5 mb 0.00 in0.0 mm 0.00 in0.0 mm 0.00 in0.0 mm
02:45 AM 43.7°F6.5°C 42.9°F6.1°C 97% 4.0 mph N6.4 kmh N 6.1 mph9.8 kmh 30.56 in1034.9 mb 0.00 in0.0 mm 0.00 in0.0 mm 0.00 in0.0 mm
03:00 AM 43.6°F6.4°C 42.8°F6.0°C 97% 3.0 mph NE4.8 kmh NE 5.1 mph8.2 kmh 30.56 in1034.9 mb 0.00 in0.0 mm 0.00 in0.0 mm 0.00 in0.0 mm
03:15 AM 43.4°F6.3°C 42.6°F5.9°C 97% 5.0 mph NE8.0 kmh NE 10.1 mph16.3 kmh 30.55 in1034.5 mb 0.00 in0.0 mm 0.00 in0.0 mm 0.00 in0.0 mm
03:30 AM 43.1°F6.2°C 42.3°F5.7°C 97% 2.0 mph NE3.2 kmh NE 6.1 mph9.8 kmh 30.55 in1034.5 mb 0.00 in0.0 mm 0.00 in0.0 mm 0.00 in0.0 mm
03:45 AM 43.1°F6.2°C 42.3°F5.7°C 97% 2.0 mph E3.2 kmh E 5.1 mph8.2 kmh 30.55 in1034.5 mb 0.00 in0.0 mm 0.00 in0.0 mm 0.00 in0.0 mm
04:00 AM 43.0°F6.1°C 42.2°F5.7°C 97% 5.0 mph E8.0 kmh E 10.1 mph16.3 kmh 30.54 in1034.2 mb 0.00 in0.0 mm 0.00 in0.0 mm 0.00 in0.0 mm
04:15 AM 42.7°F5.9°C 41.9°F5.5°C 97% 3.0 mph NE4.8 kmh NE 10.1 mph16.3 kmh 30.55 in1034.5 mb 0.00 in0.0 mm 0.00 in0.0 mm 0.00 in0.0 mm
04:30 AM 42.3°F5.7°C 41.3°F5.2°C 96% 6.0 mph SE9.7 kmh SE 12.1 mph19.5 kmh 30.55 in1034.5 mb 0.00 in0.0 mm 0.00 in0.0 mm 0.00 in0.0 mm
04:45 AM 42.2°F5.7°C 41.2°F5.1°C 96% 3.0 mph NNE4.8 kmh NNE 6.1 mph9.8 kmh 30.55 in1034.5 mb 0.00 in0.0 mm 0.00 in0.0 mm 0.00 in0.0 mm
05:00 AM 42.2°F5.7°C 41.2°F5.1°C 96% 3.0 mph ENE4.8 kmh ENE 4.0 mph6.4 kmh 30.55 in1034.5 mb 0.00 in0.0 mm 0.00 in0.0 mm 0.00 in0.0 mm
05:15 AM 42.0°F5.6°C 41.0°F5.0°C 96% 3.0 mph NNE4.8 kmh NNE 4.0 mph6.4 kmh 30.55 in1034.5 mb 0.00 in0.0 mm 0.00 in0.0 mm 0.00 in0.0 mm
05:30 AM 42.0°F5.6°C 41.2°F5.1°C 97% 2.0 mph NNE3.2 kmh NNE 3.0 mph4.8 kmh 30.55 in1034.5 mb 0.00 in0.0 mm 0.00 in0.0 mm 0.00 in0.0 mm
05:45 AM 41.8°F5.4°C 41.0°F5.0°C 97% 1.0 mph E1.6 kmh E 4.0 mph6.4 kmh 30.54 in1034.2 mb 0.00 in0.0 mm 0.00 in0.0 mm 0.00 in0.0 mm
06:00 AM 41.9°F5.5°C 41.1°F5.1°C 97% 3.0 mph N4.8 kmh N 3.0 mph4.8 kmh 30.55 in1034.5 mb 0.00 in0.0 mm 0.00 in0.0 mm 0.00 in0.0 mm
06:15 AM 41.7°F5.4°C 40.9°F4.9°C 97% 6.0 mph NE9.7 kmh NE 9.1 mph14.6 kmh 30.56 in1034.9 mb 0.00 in0.0 mm 0.00 in0.0 mm 0.00 in0.0 mm
06:30 AM 41.3°F5.2°C 40.5°F4.7°C 97% 3.0 mph NE4.8 kmh NE 4.0 mph6.4 kmh 30.55 in1034.5 mb 0.01 in0.3 mm 0.04 in1.0 mm 0.01 in0.3 mm
06:45 AM 41.3°F5.2°C 40.5°F4.7°C 97% 3.0 mph NE4.8 kmh NE 4.0 mph6.4 kmh 30.56 in1034.9 mb 0.01 in0.3 mm 0.00 in0.0 mm 0.01 in0.3 mm
07:00 AM 41.4°F5.2°C 40.6°F4.8°C 97% 1.0 mph NE1.6 kmh NE 3.0 mph4.8 kmh 30.56 in1034.9 mb 0.01 in0.3 mm 0.00 in0.0 mm 0.01 in0.3 mm
07:15 AM 41.5°F5.3°C 40.7°F4.8°C 97% 4.0 mph E6.4 kmh E 5.1 mph8.2 kmh 30.57 in1035.2 mb 0.01 in0.3 mm 0.00 in0.0 mm 0.01 in0.3 mm
07:30 AM 41.6°F5.3°C 41.1°F5.1°C 98% Calm Calm 2.0 mph3.2 kmh 30.56 in1034.9 mb 0.00 in0.0 mm 0.00 in0.0 mm 0.01 in0.3 mm
07:45 AM 41.7°F5.4°C 40.9°F4.9°C 97% 2.0 mph E3.2 kmh E 4.0 mph6.4 kmh 30.56 in1034.9 mb 0.00 in0.0 mm 0.00 in0.0 mm 0.01 in0.3 mm
08:00 AM 41.7°F5.4°C 40.9°F4.9°C 97% 1.0 mph ENE1.6 kmh ENE 2.0 mph3.2 kmh 30.56 in1034.9 mb 0.00 in0.0 mm 0.00 in0.0 mm 0.01 in0.3 mm
08:15 AM 41.8°F5.4°C 41.0°F5.0°C 97% Calm Calm 2.0 mph3.2 kmh 30.57 in1035.2 mb 0.00 in0.0 mm 0.00 in0.0 mm 0.01 in0.3 mm
08:30 AM 41.9°F5.5°C 41.1°F5.1°C 97% 2.0 mph NE3.2 kmh NE 3.0 mph4.8 kmh 30.57 in1035.2 mb 0.00 in0.0 mm 0.00 in0.0 mm 0.01 in0.3 mm
08:45 AM 41.8°F5.4°C 41.0°F5.0°C 97% 2.0 mph ENE3.2 kmh ENE 3.0 mph4.8 kmh 30.57 in1035.2 mb 0.00 in0.0 mm 0.00 in0.0 mm 0.01 in0.3 mm
09:00 AM 42.0°F5.6°C 41.0°F5.0°C 96% 1.0 mph E1.6 kmh E 3.0 mph4.8 kmh 30.57 in1035.2 mb 0.00 in0.0 mm 0.00 in0.0 mm 0.01 in0.3 mm
09:15 AM 42.4°F5.8°C 41.6°F5.3°C 97% 3.0 mph E4.8 kmh E 3.0 mph4.8 kmh 30.56 in1034.9 mb 0.00 in0.0 mm 0.00 in0.0 mm 0.01 in0.3 mm
09:30 AM 42.5°F5.8°C 41.5°F5.3°C 96% 1.0 mph NE1.6 kmh NE 1.0 mph1.6 kmh 30.56 in1034.9 mb 0.00 in0.0 mm 0.00 in0.0 mm 0.01 in0.3 mm
09:45 AM 42.7°F5.9°C 41.4°F5.2°C 95% 3.0 mph NNE4.8 kmh NNE 3.0 mph4.8 kmh 30.56 in1034.9 mb 0.00 in0.0 mm 0.00 in0.0 mm 0.01 in0.3 mm
10:00 AM 42.7°F5.9°C 41.7°F5.4°C 96% 3.0 mph NE4.8 kmh NE 4.0 mph6.4 kmh 30.55 in1034.5 mb 0.00 in0.0 mm 0.00 in0.0 mm 0.01 in0.3 mm
10:15 AM 42.9°F6.1°C 41.6°F5.3°C 95% 2.0 mph E3.2 kmh E 2.0 mph3.2 kmh 30.54 in1034.2 mb 0.00 in0.0 mm 0.00 in0.0 mm 0.01 in0.3 mm
10:30 AM 43.3°F6.3°C 42.0°F5.6°C 95% 3.0 mph E4.8 kmh E 3.0 mph4.8 kmh 30.54 in1034.2 mb 0.00 in0.0 mm 0.00 in0.0 mm 0.01 in0.3 mm
10:45 AM 43.5°F6.4°C 42.2°F5.7°C 95% 1.0 mph E1.6 kmh E 2.0 mph3.2 kmh 30.53 in1033.9 mb 0.00 in0.0 mm 0.00 in0.0 mm 0.01 in0.3 mm
11:00 AM 43.7°F6.5°C 42.4°F5.8°C 95% Calm Calm 2.0 mph3.2 kmh 30.53 in1033.9 mb 0.00 in0.0 mm 0.00 in0.0 mm 0.01 in0.3 mm
11:15 AM 43.9°F6.6°C 42.6°F5.9°C 95% Calm Calm 1.0 mph1.6 kmh 30.52 in1033.5 mb 0.00 in0.0 mm 0.00 in0.0 mm 0.01 in0.3 mm
11:30 AM 44.5°F6.9°C 42.9°F6.1°C 94% Calm Calm -- 30.52 in1033.5 mb 0.00 in0.0 mm 0.00 in0.0 mm 0.01 in0.3 mm
11:45 AM 44.7°F7.1°C 43.4°F6.3°C 95% 2.0 mph ENE3.2 kmh ENE 2.0 mph3.2 kmh 30.51 in1033.2 mb 0.00 in0.0 mm 0.00 in0.0 mm 0.01 in0.3 mm
12:00 PM 44.9°F7.2°C 43.3°F6.3°C 94% Calm Calm 1.0 mph1.6 kmh 30.50 in1032.8 mb 0.00 in0.0 mm 0.00 in0.0 mm 0.01 in0.3 mm
12:15 PM 45.5°F7.5°C 43.9°F6.6°C 94% 1.0 mph SW1.6 kmh SW 1.0 mph1.6 kmh 30.49 in1032.5 mb 0.00 in0.0 mm 0.00 in0.0 mm 0.01 in0.3 mm
12:30 PM 45.9°F7.7°C 44.0°F6.7°C 93% Calm Calm -- 30.48 in1032.2 mb 0.00 in0.0 mm 0.00 in0.0 mm 0.01 in0.3 mm
12:45 PM 45.7°F7.6°C 44.1°F6.7°C 94% 3.0 mph WSW4.8 kmh WSW 3.0 mph4.8 kmh 30.49 in1032.5 mb 0.00 in0.0 mm 0.00 in0.0 mm 0.01 in0.3 mm
01:00 PM 46.0°F7.8°C 44.1°F6.7°C 93% Calm Calm 1.0 mph1.6 kmh 30.47 in1031.8 mb 0.00 in0.0 mm 0.00 in0.0 mm 0.01 in0.3 mm
01:15 PM 46.2°F7.9°C 44.3°F6.8°C 93% Calm Calm -- 30.47 in1031.8 mb 0.00 in0.0 mm 0.00 in0.0 mm 0.01 in0.3 mm
01:30 PM 46.5°F8.1°C 44.6°F7.0°C 93% Calm Calm 2.0 mph3.2 kmh 30.46 in1031.5 mb 0.00 in0.0 mm 0.00 in0.0 mm 0.01 in0.3 mm
01:45 PM 46.7°F8.2°C 44.8°F7.1°C 93% 2.0 mph N3.2 kmh N 2.0 mph3.2 kmh 30.46 in1031.5 mb 0.00 in0.0 mm 0.00 in0.0 mm 0.01 in0.3 mm
02:00 PM 46.7°F8.2°C 44.8°F7.1°C 93% Calm Calm 1.0 mph1.6 kmh 30.45 in1031.2 mb 0.00 in0.0 mm 0.00 in0.0 mm 0.01 in0.3 mm
02:15 PM 46.9°F8.3°C 45.0°F7.2°C 93% Calm Calm 1.0 mph1.6 kmh 30.44 in1030.8 mb 0.00 in0.0 mm 0.00 in0.0 mm 0.01 in0.3 mm
02:30 PM 47.2°F8.4°C 45.3°F7.4°C 93% 1.0 mph NW1.6 kmh NW 2.0 mph3.2 kmh 30.43 in1030.5 mb 0.00 in0.0 mm 0.00 in0.0 mm 0.01 in0.3 mm
02:45 PM 47.9°F8.8°C 45.7°F7.6°C 92% 2.0 mph S3.2 kmh S 4.0 mph6.4 kmh 30.42 in1030.1 mb 0.00 in0.0 mm 0.00 in0.0 mm 0.01 in0.3 mm
03:00 PM 48.1°F8.9°C 45.9°F7.7°C 92% Calm Calm 2.0 mph3.2 kmh 30.42 in1030.1 mb 0.00 in0.0 mm 0.00 in0.0 mm 0.01 in0.3 mm
03:15 PM 48.5°F9.2°C 45.8°F7.7°C 90% 4.0 mph SSW6.4 kmh SSW 4.0 mph6.4 kmh 30.42 in1030.1 mb 0.00 in0.0 mm 0.00 in0.0 mm 0.01 in0.3 mm
03:30 PM 48.3°F9.1°C 45.6°F7.6°C 90% 2.0 mph S3.2 kmh S 6.1 mph9.8 kmh 30.41 in1029.8 mb 0.00 in0.0 mm 0.00 in0.0 mm 0.01 in0.3 mm
03:45 PM 49.1°F9.5°C 46.3°F7.9°C 90% 3.0 mph SSW4.8 kmh SSW 3.0 mph4.8 kmh 30.40 in1029.5 mb 0.00 in0.0 mm 0.00 in0.0 mm 0.01 in0.3 mm
04:00 PM 48.6°F9.2°C 45.9°F7.7°C 90% 6.0 mph SSW9.7 kmh SSW 6.1 mph9.8 kmh 30.40 in1029.5 mb 0.00 in0.0 mm 0.00 in0.0 mm 0.01 in0.3 mm
04:15 PM 48.9°F9.4°C 46.1°F7.8°C 90% 2.0 mph SSW3.2 kmh SSW 5.1 mph8.2 kmh 30.39 in1029.1 mb 0.00 in0.0 mm 0.00 in0.0 mm 0.01 in0.3 mm
04:30 PM 49.0°F9.4°C 46.2°F7.9°C 90% 1.0 mph SSW1.6 kmh SSW 5.1 mph8.2 kmh 30.38 in1028.8 mb 0.00 in0.0 mm 0.00 in0.0 mm 0.01 in0.3 mm
04:45 PM 49.0°F9.4°C 46.2°F7.9°C 90% 4.0 mph SE6.4 kmh SE 4.0 mph6.4 kmh 30.37 in1028.4 mb 0.00 in0.0 mm 0.00 in0.0 mm 0.01 in0.3 mm
05:00 PM 49.4°F9.7°C 46.5°F8.1°C 90% 2.0 mph S3.2 kmh S 4.0 mph6.4 kmh 30.36 in1028.1 mb 0.00 in0.0 mm 0.00 in0.0 mm 0.01 in0.3 mm
05:15 PM 49.6°F9.8°C 46.7°F8.2°C 90% 3.0 mph SW4.8 kmh SW 5.1 mph8.2 kmh 30.36 in1028.1 mb 0.00 in0.0 mm 0.00 in0.0 mm 0.01 in0.3 mm
05:30 PM 49.8°F9.9°C 46.9°F8.3°C 90% 1.0 mph SSW1.6 kmh SSW 5.1 mph8.2 kmh 30.36 in1028.1 mb 0.00 in0.0 mm 0.00 in0.0 mm 0.01 in0.3 mm
05:45 PM 50.0°F10.0°C 47.1°F8.4°C 90% 3.0 mph SSW4.8 kmh SSW 3.0 mph4.8 kmh 30.35 in1027.8 mb 0.00 in0.0 mm 0.00 in0.0 mm 0.01 in0.3 mm
06:15 PM 50.2°F10.1°C 47.3°F8.5°C 90% 2.0 mph SSW3.2 kmh SSW 2.0 mph3.2 kmh 30.34 in1027.4 mb 0.00 in0.0 mm 0.00 in0.0 mm 0.01 in0.3 mm
06:30 PM 50.2°F10.1°C 47.3°F8.5°C 90% Calm Calm -- 30.34 in1027.4 mb 0.00 in0.0 mm 0.00 in0.0 mm 0.01 in0.3 mm
06:45 PM 50.1°F10.1°C 47.2°F8.4°C 90% Calm Calm -- 30.34 in1027.4 mb 0.00 in0.0 mm 0.00 in0.0 mm 0.01 in0.3 mm
08:30 PM 50.9°F10.5°C 48.3°F9.1°C 91% 2.0 mph S3.2 kmh S 2.0 mph3.2 kmh 30.33 in1027.1 mb 0.00 in0.0 mm 0.00 in0.0 mm 0.01 in0.3 mm
08:45 PM 50.7°F10.4°C 48.4°F9.1°C 92% 2.0 mph S3.2 kmh S 3.0 mph4.8 kmh 30.33 in1027.1 mb 0.00 in0.0 mm 0.00 in0.0 mm 0.01 in0.3 mm
09:00 PM 50.9°F10.5°C 48.6°F9.2°C 92% 1.0 mph SSW1.6 kmh SSW 3.0 mph4.8 kmh 30.33 in1027.1 mb 0.00 in0.0 mm 0.00 in0.0 mm 0.01 in0.3 mm
09:15 PM 50.9°F10.5°C 48.6°F9.2°C 92% 3.0 mph SSW4.8 kmh SSW 3.0 mph4.8 kmh 30.33 in1027.1 mb 0.00 in0.0 mm 0.00 in0.0 mm 0.01 in0.3 mm
09:30 PM 50.9°F10.5°C 48.6°F9.2°C 92% 3.0 mph SSW4.8 kmh SSW 3.0 mph4.8 kmh 30.32 in1026.8 mb 0.00 in0.0 mm 0.00 in0.0 mm 0.01 in0.3 mm
09:45 PM 50.9°F10.5°C 48.6°F9.2°C 92% Calm Calm 1.0 mph1.6 kmh 30.32 in1026.8 mb 0.00 in0.0 mm 0.00 in0.0 mm 0.01 in0.3 mm
10:00 PM 50.7°F10.4°C 48.4°F9.1°C 92% 3.0 mph S4.8 kmh S 4.0 mph6.4 kmh 30.31 in1026.4 mb 0.00 in0.0 mm 0.00 in0.0 mm 0.01 in0.3 mm
10:15 PM 50.8°F10.4°C 48.8°F9.3°C 93% 2.0 mph SSW3.2 kmh SSW 4.0 mph6.4 kmh 30.31 in1026.4 mb 0.00 in0.0 mm 0.00 in0.0 mm 0.01 in0.3 mm
10:30 PM 50.2°F10.1°C 48.2°F9.0°C 93% 1.0 mph SSW1.6 kmh SSW 3.0 mph4.8 kmh 30.31 in1026.4 mb 0.00 in0.0 mm 0.00 in0.0 mm 0.01 in0.3 mm
10:45 PM 49.9°F9.9°C 48.2°F9.0°C 94% 3.0 mph SW4.8 kmh SW 5.1 mph8.2 kmh 30.30 in1026.1 mb 0.00 in0.0 mm 0.00 in0.0 mm 0.01 in0.3 mm
11:00 PM 49.5°F9.7°C 48.1°F8.9°C 95% Calm Calm 3.0 mph4.8 kmh 30.30 in1026.1 mb 0.00 in0.0 mm 0.00 in0.0 mm 0.01 in0.3 mm
11:15 PM 48.9°F9.4°C 47.6°F8.7°C 95% 1.0 mph SSW1.6 kmh SSW 1.0 mph1.6 kmh 30.28 in1025.4 mb 0.00 in0.0 mm 0.00 in0.0 mm 0.01 in0.3 mm
11:30 PM 48.6°F9.2°C 47.6°F8.7°C 96% 1.0 mph SSW1.6 kmh SSW 4.0 mph6.4 kmh 30.28 in1025.4 mb 0.00 in0.0 mm 0.00 in0.0 mm 0.01 in0.3 mm
11:45 PM 48.7°F9.3°C 47.7°F8.7°C 96% 1.0 mph S1.6 kmh S 3.0 mph4.8 kmh 30.28 in1025.4 mb 0.00 in0.0 mm 0.00 in0.0 mm 0.01 in0.3 mm